createdAt,value
2022-09-17T00:01:03.322Z,19.60
2022-09-17T00:03:31.095Z,19.70
2022-09-17T00:06:06.418Z,19.60
2022-09-17T00:08:34.659Z,19.50
2022-09-17T00:11:15.527Z,19.60
2022-09-17T00:13:43.892Z,19.40
2022-09-17T00:16:12.017Z,19.40
2022-09-17T00:18:41.972Z,19.40
2022-09-17T00:21:17.070Z,19.30
2022-09-17T00:23:44.586Z,19.20
2022-09-17T00:26:12.155Z,19.00
2022-09-17T00:28:39.799Z,18.80
2022-09-17T00:31:08.991Z,18.90
2022-09-17T00:33:36.997Z,18.80
2022-09-17T00:36:05.364Z,18.70
2022-09-17T00:38:32.988Z,18.80
2022-09-17T00:41:00.951Z,18.80
2022-09-17T00:43:37.801Z,18.80
2022-09-17T00:46:11.102Z,18.80
2022-09-17T00:48:38.737Z,18.70
2022-09-17T00:51:07.897Z,18.70
2022-09-17T00:53:35.353Z,18.70
2022-09-17T00:56:10.004Z,18.70
2022-09-17T00:58:41.304Z,18.70
2022-09-17T01:01:09.067Z,18.70
2022-09-17T01:03:37.092Z,18.70
2022-09-17T01:06:17.542Z,18.60
2022-09-17T01:08:49.103Z,18.60
2022-09-17T01:11:22.596Z,18.50
2022-09-17T01:13:53.087Z,18.50
2022-09-17T01:16:26.603Z,18.40
2022-09-17T01:19:13.525Z,18.40
2022-09-17T01:21:40.998Z,18.40
2022-09-17T01:24:28.969Z,18.30
2022-09-17T01:27:17.103Z,18.30
2022-09-17T01:29:57.037Z,18.40
2022-09-17T01:32:43.240Z,18.50
2022-09-17T01:35:13.684Z,18.60
2022-09-17T01:37:58.233Z,18.60
2022-09-17T01:40:33.981Z,18.50
2022-09-17T01:43:13.882Z,18.40
2022-09-17T01:45:47.533Z,18.30
2022-09-17T01:48:19.444Z,18.30
2022-09-17T01:50:57.129Z,18.30
2022-09-17T01:53:28.483Z,18.20
2022-09-17T01:55:57.341Z,18.20
2022-09-17T01:58:33.849Z,18.20
2022-09-17T02:01:03.841Z,18.20
2022-09-17T02:03:42.551Z,18.20
2022-09-17T02:06:18.113Z,18.10
2022-09-17T02:08:53.610Z,18.10
2022-09-17T02:11:21.255Z,18.10
2022-09-17T02:13:59.932Z,18.10
2022-09-17T02:16:29.176Z,18.10
2022-09-17T02:19:07.206Z,18.20
2022-09-17T02:21:34.652Z,18.20
2022-09-17T02:24:05.191Z,18.30
2022-09-17T02:26:33.580Z,18.10
2022-09-17T02:29:05.321Z,18.00
2022-09-17T02:31:33.336Z,18.00
2022-09-17T02:34:03.020Z,18.00
2022-09-17T02:36:32.330Z,17.90
2022-09-17T02:39:01.685Z,18.10
2022-09-17T02:41:43.130Z,18.10
2022-09-17T02:44:13.566Z,18.10
2022-09-17T02:47:00.227Z,18.10
2022-09-17T02:49:30.711Z,18.00
2022-09-17T02:51:58.105Z,18.00
2022-09-17T02:54:31.497Z,18.00
2022-09-17T02:56:58.888Z,18.00
2022-09-17T02:59:38.000Z,18.10
2022-09-17T03:02:20.121Z,18.10
2022-09-17T03:04:49.395Z,18.00
2022-09-17T03:07:18.199Z,18.10
2022-09-17T03:09:45.912Z,18.10
2022-09-17T03:12:13.432Z,18.10
2022-09-17T03:14:40.959Z,18.00
2022-09-17T03:17:08.490Z,18.00
2022-09-17T03:19:38.142Z,17.90
2022-09-17T03:22:05.630Z,17.90
2022-09-17T03:24:33.097Z,17.80
2022-09-17T03:27:00.501Z,17.90
2022-09-17T03:29:28.004Z,17.90
2022-09-17T03:31:55.493Z,17.90
2022-09-17T03:34:24.022Z,17.90
2022-09-17T03:36:51.611Z,17.90
2022-09-17T03:39:19.156Z,17.90
2022-09-17T03:41:46.594Z,17.90
2022-09-17T03:44:15.505Z,17.80
2022-09-17T03:46:42.985Z,17.80
2022-09-17T03:49:10.586Z,17.80
2022-09-17T03:51:38.085Z,17.80
2022-09-17T03:54:05.569Z,17.80
2022-09-17T03:56:33.242Z,17.80
2022-09-17T03:59:01.146Z,17.80
2022-09-17T04:01:28.951Z,17.80
2022-09-17T04:03:56.702Z,17.80
2022-09-17T04:06:24.171Z,17.80
2022-09-17T04:08:51.681Z,17.80
2022-09-17T04:11:19.306Z,17.80
2022-09-17T04:13:46.869Z,17.70
2022-09-17T04:16:14.573Z,17.60
2022-09-17T04:18:42.174Z,17.50
2022-09-17T04:21:09.629Z,17.50
2022-09-17T04:23:37.350Z,17.40
2022-09-17T04:26:04.808Z,17.40
2022-09-17T04:28:32.267Z,17.40
2022-09-17T04:30:59.861Z,17.40
2022-09-17T04:33:27.315Z,17.30
2022-09-17T04:35:54.737Z,17.40
2022-09-17T04:38:22.988Z,17.40
2022-09-17T04:40:51.683Z,17.40
2022-09-17T04:43:19.154Z,17.50
2022-09-17T04:45:49.576Z,17.60
2022-09-17T04:48:17.502Z,17.60
2022-09-17T04:50:45.087Z,17.60
2022-09-17T04:53:13.125Z,17.60
2022-09-17T04:55:40.600Z,17.70
2022-09-17T04:58:08.140Z,17.80
2022-09-17T05:00:35.721Z,17.60
2022-09-17T05:03:03.428Z,17.50
2022-09-17T05:05:30.903Z,17.50
2022-09-17T05:07:58.477Z,17.60
2022-09-17T05:10:26.493Z,17.40
2022-09-17T05:12:55.420Z,17.50
2022-09-17T05:15:23.776Z,17.50
2022-09-17T05:17:53.968Z,17.60
2022-09-17T05:20:21.739Z,17.50
2022-09-17T05:22:51.468Z,17.40
2022-09-17T05:25:20.342Z,17.20
2022-09-17T05:27:47.738Z,17.10
2022-09-17T05:30:15.574Z,17.00
2022-09-17T05:32:43.060Z,17.10
2022-09-17T05:35:10.654Z,17.00
2022-09-17T05:37:40.205Z,17.00
2022-09-17T05:40:08.408Z,16.80
2022-09-17T05:42:36.028Z,16.90
2022-09-17T05:45:03.572Z,16.80
2022-09-17T05:47:31.133Z,16.80
2022-09-17T05:49:58.560Z,16.80
2022-09-17T05:52:29.883Z,16.80
2022-09-17T05:54:57.403Z,16.80
2022-09-17T05:57:24.948Z,16.70
2022-09-17T05:59:52.508Z,16.80
2022-09-17T06:02:20.221Z,16.80
2022-09-17T06:04:47.898Z,16.70
2022-09-17T06:07:15.449Z,16.70
2022-09-17T06:09:42.961Z,16.80
2022-09-17T06:12:10.377Z,16.80
2022-09-17T06:14:37.862Z,16.70
2022-09-17T06:17:05.381Z,16.80
2022-09-17T06:19:32.991Z,16.80
2022-09-17T06:22:00.591Z,16.70
2022-09-17T06:24:28.222Z,16.60
2022-09-17T06:26:55.740Z,16.60
2022-09-17T06:29:23.209Z,16.60
2022-09-17T06:31:50.776Z,16.60
2022-09-17T06:34:18.285Z,16.50
2022-09-17T06:36:45.952Z,16.50
2022-09-17T06:39:13.448Z,16.50
2022-09-17T06:41:43.254Z,16.50
2022-09-17T06:44:10.894Z,16.50
2022-09-17T06:46:38.433Z,16.50
2022-09-17T06:49:06.017Z,16.40
2022-09-17T06:51:33.943Z,16.20
2022-09-17T06:54:01.705Z,16.20
2022-09-17T06:56:29.170Z,16.10
2022-09-17T06:58:56.740Z,16.20
2022-09-17T07:01:24.498Z,16.10
2022-09-17T07:03:51.922Z,16.20
2022-09-17T07:06:19.426Z,16.20
2022-09-17T07:08:47.311Z,16.30
2022-09-17T07:11:16.254Z,16.20
2022-09-17T07:13:43.894Z,16.00
2022-09-17T07:16:11.912Z,15.90
2022-09-17T07:18:40.331Z,16.00
2022-09-17T07:21:08.085Z,15.80
2022-09-17T07:23:36.537Z,15.80
2022-09-17T07:26:08.295Z,15.80
2022-09-17T07:28:38.481Z,15.70
2022-09-17T07:31:06.562Z,15.80
2022-09-17T07:33:35.012Z,15.70
2022-09-17T07:36:03.713Z,15.70
2022-09-17T07:38:31.515Z,15.50
2022-09-17T07:41:03.344Z,15.40
2022-09-17T07:43:32.327Z,15.30
2022-09-17T07:46:00.927Z,15.40
2022-09-17T07:48:28.683Z,15.40
2022-09-17T07:50:56.527Z,15.40
2022-09-17T07:53:24.214Z,15.40
2022-09-17T07:55:52.551Z,15.40
2022-09-17T07:58:20.890Z,15.30
2022-09-17T08:00:48.950Z,15.30
2022-09-17T08:03:16.640Z,15.30
2022-09-17T08:05:44.146Z,15.20
2022-09-17T08:08:11.772Z,15.20
2022-09-17T08:10:39.253Z,15.20
2022-09-17T08:13:06.885Z,15.20
2022-09-17T08:15:34.295Z,15.30
2022-09-17T08:18:01.745Z,15.40
2022-09-17T08:20:29.290Z,15.40
2022-09-17T08:23:02.871Z,15.40
2022-09-17T08:25:30.390Z,15.40
2022-09-17T08:27:57.963Z,15.20
2022-09-17T08:30:25.408Z,15.10
2022-09-17T08:32:55.285Z,15.30
2022-09-17T08:35:22.754Z,15.40
2022-09-17T08:37:50.300Z,15.50
2022-09-17T08:40:21.161Z,15.60
2022-09-17T08:42:57.602Z,15.70
2022-09-17T08:45:26.521Z,15.70
2022-09-17T08:47:55.854Z,15.70
2022-09-17T08:50:28.187Z,15.70
2022-09-17T08:53:04.324Z,15.70
2022-09-17T08:55:38.064Z,15.70
2022-09-17T08:58:20.800Z,15.70
2022-09-17T09:00:58.913Z,15.90
2022-09-17T09:03:38.825Z,15.90
2022-09-17T09:06:10.635Z,15.90
2022-09-17T09:08:58.793Z,15.80
2022-09-17T09:11:31.138Z,15.80
2022-09-17T09:14:01.661Z,15.70
2022-09-17T09:16:31.030Z,15.70
2022-09-17T09:19:06.857Z,15.60
2022-09-17T09:21:42.105Z,15.70
2022-09-17T09:24:15.456Z,15.90
2022-09-17T09:26:45.102Z,16.00
2022-09-17T09:29:32.798Z,16.10
2022-09-17T09:32:16.749Z,16.10
2022-09-17T09:34:45.744Z,16.30
2022-09-17T09:37:28.522Z,16.50
2022-09-17T09:39:59.456Z,16.60
2022-09-17T09:42:34.457Z,16.70
2022-09-17T09:45:07.053Z,16.80
2022-09-17T09:47:39.600Z,16.80
2022-09-17T09:50:38.369Z,17.00
2022-09-17T09:53:14.202Z,17.10
2022-09-17T09:56:17.240Z,17.00
2022-09-17T09:58:45.055Z,17.10
2022-09-17T10:01:14.371Z,16.90
2022-09-17T10:03:44.115Z,16.90
2022-09-17T10:06:12.387Z,17.10
2022-09-17T10:09:00.353Z,17.00
2022-09-17T10:11:28.992Z,17.10
2022-09-17T10:14:16.763Z,17.10
2022-09-17T10:16:44.270Z,17.20
2022-09-17T10:19:13.441Z,17.30
2022-09-17T10:21:42.387Z,17.30
2022-09-17T10:24:17.420Z,17.40
2022-09-17T10:26:44.963Z,17.40
2022-09-17T10:29:15.057Z,17.30
2022-09-17T10:31:55.647Z,17.30
2022-09-17T10:34:23.137Z,17.30
2022-09-17T10:36:50.809Z,17.30
2022-09-17T10:39:30.214Z,17.50
2022-09-17T10:41:57.918Z,17.60
2022-09-17T10:44:35.883Z,17.70
2022-09-17T10:47:05.911Z,17.60
2022-09-17T10:49:33.419Z,17.70
2022-09-17T10:52:05.338Z,17.60
2022-09-17T10:54:41.466Z,17.80
2022-09-17T10:57:10.402Z,17.80
2022-09-17T10:59:47.761Z,18.00
2022-09-17T11:02:24.305Z,17.90
2022-09-17T11:05:04.024Z,18.00
2022-09-17T11:07:44.412Z,17.80
2022-09-17T11:10:26.861Z,17.90
2022-09-17T11:13:03.444Z,17.90
2022-09-17T11:15:40.055Z,17.70
2022-09-17T11:18:26.485Z,17.70
2022-09-17T11:20:54.386Z,18.10
2022-09-17T11:23:25.099Z,18.20
2022-09-17T11:26:05.031Z,18.20
2022-09-17T11:28:49.210Z,18.20
2022-09-17T11:31:34.782Z,18.50
2022-09-17T11:34:14.465Z,18.50
2022-09-17T11:36:49.099Z,18.60
2022-09-17T11:39:23.310Z,18.90
2022-09-17T11:41:52.588Z,19.00
2022-09-17T11:44:23.115Z,19.40
2022-09-17T11:46:56.647Z,19.50
2022-09-17T11:49:28.621Z,19.70
2022-09-17T11:51:59.572Z,20.10
2022-09-17T11:54:26.955Z,20.30
2022-09-17T11:57:15.278Z,20.20
2022-09-17T11:59:42.775Z,20.10
2022-09-17T12:02:29.295Z,19.80
2022-09-17T12:05:03.143Z,19.60
2022-09-17T12:07:40.047Z,19.90
2022-09-17T12:10:18.350Z,20.10
2022-09-17T12:13:01.421Z,20.60
2022-09-17T12:15:31.487Z,20.50
2022-09-17T12:18:27.736Z,20.10
2022-09-17T12:20:51.065Z,19.70
2022-09-17T12:23:31.536Z,19.40
2022-09-17T12:26:05.311Z,19.60
2022-09-17T12:28:40.108Z,19.50
2022-09-17T12:31:17.801Z,19.40
2022-09-17T12:33:52.897Z,19.10
2022-09-17T12:36:23.529Z,19.10
2022-09-17T12:39:09.079Z,19.20
2022-09-17T12:41:36.572Z,19.30
2022-09-17T12:44:03.986Z,19.30
2022-09-17T12:46:37.791Z,19.20
2022-09-17T12:49:16.039Z,19.10
2022-09-17T12:52:00.026Z,19.10
2022-09-17T12:54:33.768Z,18.90
2022-09-17T12:57:08.270Z,18.90
2022-09-17T12:59:39.752Z,18.90
2022-09-17T13:02:18.244Z,19.00
2022-09-17T13:05:04.145Z,18.70
2022-09-17T13:07:46.304Z,18.70
2022-09-17T13:10:20.112Z,18.60
2022-09-17T13:12:50.460Z,18.70
2022-09-17T13:15:17.992Z,18.90
2022-09-17T13:18:12.851Z,19.00
2022-09-17T13:20:53.955Z,19.00
2022-09-17T13:23:38.553Z,18.70
2022-09-17T13:26:07.921Z,18.80
2022-09-17T13:28:39.657Z,19.20
2022-09-17T13:31:12.204Z,19.60
2022-09-17T13:33:52.957Z,20.10
2022-09-17T13:36:41.142Z,20.20
2022-09-17T13:39:10.095Z,20.00
2022-09-17T13:41:42.513Z,20.10
2022-09-17T13:44:11.005Z,20.20
2022-09-17T13:46:39.338Z,20.40
2022-09-17T13:49:13.724Z,20.40
2022-09-17T13:51:41.109Z,20.70
2022-09-17T13:54:10.669Z,20.60
2022-09-17T13:56:50.875Z,20.70
2022-09-17T13:59:20.319Z,20.80
2022-09-17T14:01:56.984Z,20.50
2022-09-17T14:04:42.547Z,20.50
2022-09-17T14:07:22.148Z,20.00
2022-09-17T14:09:49.616Z,20.10
2022-09-17T14:12:35.750Z,20.40
2022-09-17T14:15:03.300Z,20.60
2022-09-17T14:17:51.031Z,20.70
2022-09-17T14:20:23.012Z,20.60
2022-09-17T14:23:00.800Z,20.20
2022-09-17T14:25:40.325Z,20.30
2022-09-17T14:28:34.642Z,20.20
2022-09-17T14:31:03.396Z,20.30
2022-09-17T14:33:32.244Z,20.30
2022-09-17T14:36:01.971Z,20.10
2022-09-17T14:38:34.212Z,20.30
2022-09-17T14:41:06.638Z,19.90
2022-09-17T14:43:45.807Z,20.00
2022-09-17T14:46:18.560Z,19.80
2022-09-17T14:48:46.342Z,19.50
2022-09-17T14:51:23.068Z,19.50
2022-09-17T14:53:50.861Z,19.40
2022-09-17T14:56:22.141Z,19.20
2022-09-17T14:58:53.150Z,19.30
2022-09-17T15:01:24.307Z,19.40
2022-09-17T15:04:10.914Z,19.50
2022-09-17T15:06:39.274Z,19.50
2022-09-17T15:09:06.962Z,19.30
2022-09-17T15:11:41.445Z,19.40
2022-09-17T15:14:12.627Z,19.40
2022-09-17T15:16:46.995Z,19.50
2022-09-17T15:19:20.615Z,19.50
2022-09-17T15:21:50.218Z,19.30
2022-09-17T15:24:23.928Z,19.30
2022-09-17T15:26:53.790Z,19.30
2022-09-17T15:29:23.384Z,19.30
2022-09-17T15:31:51.205Z,19.30
2022-09-17T15:34:18.949Z,19.40
2022-09-17T15:37:05.884Z,19.50
2022-09-17T15:39:41.360Z,19.40
2022-09-17T15:42:38.538Z,19.40
2022-09-17T15:45:18.131Z,19.20
2022-09-17T15:47:48.979Z,19.20
2022-09-17T15:50:18.624Z,19.10
2022-09-17T15:52:46.805Z,19.00
2022-09-17T15:55:29.563Z,19.00
2022-09-17T15:58:01.409Z,19.20
2022-09-17T16:00:29.353Z,19.00
2022-09-17T16:02:57.874Z,18.90
2022-09-17T16:05:25.445Z,18.90
2022-09-17T16:07:53.589Z,18.90
2022-09-17T16:10:21.259Z,18.80
2022-09-17T16:12:52.153Z,18.90
2022-09-17T16:15:20.128Z,19.00
2022-09-17T16:17:48.552Z,19.20
2022-09-17T16:20:18.354Z,19.00
2022-09-17T16:22:48.172Z,19.10
2022-09-17T16:25:16.308Z,19.00
2022-09-17T16:27:49.453Z,19.10
2022-09-17T16:30:18.764Z,18.70
2022-09-17T16:32:46.465Z,18.70
2022-09-17T16:35:17.263Z,18.80
2022-09-17T16:37:48.911Z,18.90
2022-09-17T16:40:16.884Z,18.90
2022-09-17T16:42:44.351Z,18.80
2022-09-17T16:45:12.182Z,18.70
2022-09-17T16:47:41.008Z,18.60
2022-09-17T16:50:10.403Z,18.50
2022-09-17T16:52:37.862Z,18.50
2022-09-17T16:55:06.069Z,18.60
2022-09-17T16:57:33.695Z,18.60
2022-09-17T17:00:01.417Z,18.70
2022-09-17T17:02:28.996Z,18.60
2022-09-17T17:04:56.511Z,18.40
2022-09-17T17:07:24.100Z,18.30
2022-09-17T17:09:51.651Z,18.40
2022-09-17T17:12:19.552Z,18.50
2022-09-17T17:14:50.171Z,18.50
2022-09-17T17:17:18.232Z,18.60
2022-09-17T17:19:49.137Z,18.40
2022-09-17T17:22:16.796Z,18.40
2022-09-17T17:24:44.212Z,18.50
2022-09-17T17:27:13.037Z,18.40
2022-09-17T17:29:41.096Z,18.30
2022-09-17T17:32:08.581Z,18.30
2022-09-17T17:34:36.093Z,18.30
2022-09-17T17:37:03.553Z,18.30
2022-09-17T17:39:31.197Z,18.00
2022-09-17T17:41:59.275Z,18.00
2022-09-17T17:44:26.858Z,17.90
2022-09-17T17:46:54.358Z,18.00
2022-09-17T17:49:21.860Z,17.70
2022-09-17T17:51:49.483Z,17.50
2022-09-17T17:54:17.605Z,17.60
2022-09-17T17:56:45.374Z,17.40
2022-09-17T17:59:12.993Z,17.50
2022-09-17T18:01:40.584Z,17.40
2022-09-17T18:04:08.531Z,17.20
2022-09-17T18:06:36.083Z,17.10
2022-09-17T18:09:04.607Z,17.10
2022-09-17T18:11:32.638Z,17.10
2022-09-17T18:14:03.257Z,17.10
2022-09-17T18:16:30.876Z,17.00
2022-09-17T18:18:58.807Z,16.90
2022-09-17T18:21:26.496Z,17.00
2022-09-17T18:23:54.035Z,17.20
2022-09-17T18:26:25.718Z,17.40
2022-09-17T18:28:53.663Z,17.40
2022-09-17T18:31:28.991Z,17.40
2022-09-17T18:34:04.432Z,17.30
2022-09-17T18:36:34.132Z,17.20
2022-09-17T18:39:32.832Z,17.10
2022-09-17T18:41:50.887Z,17.10
2022-09-17T18:44:21.772Z,17.10
2022-09-17T18:46:51.378Z,17.00
2022-09-17T18:49:19.529Z,16.90
2022-09-17T18:51:47.075Z,16.80
2022-09-17T18:54:14.798Z,16.70
2022-09-17T18:56:42.514Z,16.60
2022-09-17T18:59:10.527Z,16.80
2022-09-17T19:01:38.089Z,16.90
2022-09-17T19:04:07.849Z,16.90
2022-09-17T19:06:35.774Z,16.80
2022-09-17T19:09:04.125Z,16.70
2022-09-17T19:11:31.692Z,16.60
2022-09-17T19:13:59.381Z,16.50
2022-09-17T19:16:27.146Z,16.50
2022-09-17T19:18:54.771Z,16.40
2022-09-17T19:21:22.219Z,16.30
2022-09-17T19:23:50.869Z,16.40
2022-09-17T19:26:19.509Z,16.30
2022-09-17T19:28:47.124Z,16.30
2022-09-17T19:31:16.237Z,16.30
2022-09-17T19:33:44.052Z,16.50
2022-09-17T19:36:12.640Z,16.50
2022-09-17T19:38:40.166Z,16.50
2022-09-17T19:41:09.727Z,16.40
2022-09-17T19:43:37.285Z,16.30
2022-09-17T19:46:05.966Z,16.40
2022-09-17T19:48:35.894Z,16.40
2022-09-17T19:51:04.498Z,16.30
2022-09-17T19:53:32.345Z,16.40
2022-09-17T19:55:59.799Z,16.30
2022-09-17T19:58:27.273Z,16.30
2022-09-17T20:00:56.056Z,16.40
2022-09-17T20:03:23.962Z,16.40
2022-09-17T20:05:58.394Z,16.50
2022-09-17T20:08:26.010Z,16.40
2022-09-17T20:10:54.919Z,16.30
2022-09-17T20:13:23.221Z,16.30
2022-09-17T20:15:50.641Z,16.30
2022-09-17T20:18:23.127Z,16.20
2022-09-17T20:20:51.076Z,16.20
2022-09-17T20:23:18.720Z,16.10
2022-09-17T20:25:51.458Z,16.20
2022-09-17T20:28:18.922Z,16.10
2022-09-17T20:30:46.456Z,16.10
2022-09-17T20:33:14.074Z,16.00
2022-09-17T20:35:41.624Z,16.00
2022-09-17T20:39:06.606Z,16.20
2022-09-17T20:41:03.595Z,16.30
2022-09-17T20:43:34.590Z,16.30
2022-09-17T20:46:02.659Z,16.20
2022-09-17T20:48:30.777Z,16.20
2022-09-17T20:51:00.517Z,16.20
2022-09-17T20:53:29.212Z,16.10
2022-09-17T20:56:01.050Z,16.20
2022-09-17T20:58:34.582Z,16.20
2022-09-17T21:01:07.740Z,16.10
2022-09-17T21:03:35.589Z,16.10
2022-09-17T21:06:03.144Z,15.90
2022-09-17T21:08:30.681Z,15.70
2022-09-17T21:10:58.206Z,15.70
2022-09-17T21:13:25.773Z,15.90
2022-09-17T21:16:00.410Z,16.00
2022-09-17T21:18:28.042Z,16.00
2022-09-17T21:20:55.639Z,15.90
2022-09-17T21:23:24.575Z,15.80
2022-09-17T21:25:52.457Z,15.80
2022-09-17T21:28:20.576Z,15.80
2022-09-17T21:30:48.468Z,15.70
2022-09-17T21:33:22.277Z,15.80
2022-09-17T21:35:50.688Z,16.00
2022-09-17T21:38:21.162Z,15.90
2022-09-17T21:40:58.370Z,15.90
2022-09-17T21:43:26.724Z,15.90
2022-09-17T21:45:58.129Z,16.00
2022-09-17T21:48:25.954Z,15.90
2022-09-17T21:50:53.931Z,15.90
2022-09-17T21:53:21.512Z,15.90
2022-09-17T21:55:48.952Z,15.90
2022-09-17T21:58:16.519Z,15.90
2022-09-17T22:00:44.050Z,15.90
2022-09-17T22:03:12.910Z,15.80
2022-09-17T22:05:40.521Z,15.70
2022-09-17T22:08:07.927Z,15.60
2022-09-17T22:10:35.414Z,15.60
2022-09-17T22:13:02.855Z,15.50
2022-09-17T22:15:30.436Z,15.50
2022-09-17T22:17:58.031Z,15.40
2022-09-17T22:20:25.728Z,15.20
2022-09-17T22:22:53.248Z,15.30
2022-09-17T22:25:20.819Z,15.40
2022-09-17T22:28:16.899Z,15.40
2022-09-17T22:30:39.803Z,15.30
2022-09-17T22:33:07.433Z,15.30
2022-09-17T22:35:35.155Z,15.50
2022-09-17T22:38:02.667Z,15.40
2022-09-17T22:40:30.193Z,15.40
2022-09-17T22:42:58.261Z,15.40
2022-09-17T22:45:25.768Z,15.50
2022-09-17T22:47:53.185Z,15.50
2022-09-17T22:50:20.645Z,15.40
2022-09-17T22:52:48.313Z,15.30
2022-09-17T22:55:15.848Z,15.10
2022-09-17T22:57:43.428Z,15.00
2022-09-17T23:00:12.201Z,14.90
2022-09-17T23:02:39.888Z,14.90
2022-09-17T23:05:07.506Z,15.00
2022-09-17T23:07:34.945Z,15.10
2022-09-17T23:10:02.349Z,15.10
2022-09-17T23:12:30.148Z,15.20
2022-09-17T23:14:57.660Z,15.20
2022-09-17T23:17:29.310Z,15.20
2022-09-17T23:19:57.205Z,15.20
2022-09-17T23:22:24.750Z,15.30
2022-09-17T23:24:52.179Z,15.30
2022-09-17T23:27:19.690Z,15.20
2022-09-17T23:29:47.201Z,15.20
2022-09-17T23:32:14.642Z,15.10
2022-09-17T23:34:42.683Z,15.20
2022-09-17T23:37:10.086Z,15.10
2022-09-17T23:39:37.719Z,15.00
2022-09-17T23:42:05.240Z,14.90
2022-09-17T23:44:32.649Z,14.80
2022-09-17T23:47:00.082Z,14.90
2022-09-17T23:49:27.941Z,15.00
2022-09-17T23:51:55.332Z,15.00
2022-09-17T23:54:22.778Z,14.90
2022-09-17T23:56:50.221Z,14.80
2022-09-17T23:59:17.698Z,14.70
